Aérodrome :
LOGIN :

S'inscrire | Disclaimer

   EN    FR    IT 

 










Légende :    VFR   VFR Marginal   IFR   IFR Intensif   IFR Très Intensif
Visi : 
Plafond : 
>= 8 km
>= 3000ft
5 à 8 km
1000 à 3000 ft
1500m à 5 km
500 à 1000 ft
800 à 1500m
200 à 500 ft
< 800m
< 200 ft
Symboles :   Orages  Brouillard  Fortes neiges  Fortes précipitations  Vent > 20 kt
SIGMETs :   Divers  Orages  Givrage  Turbulence  Onde Orograph.  Cendres Volcan.






- Altitude de l'aérodrome : 117 ft
- Code IATA : NWI


EGSH - Norwich

DERNIER METAR :
  • 141120Z 30010KT 270V330 9999 FEW028 SCT035 19/10 Q1015

METARs EXPIRÉS :
  • 141050Z 31005KT 260V360 9999 SCT024 18/11 Q1015 NOSIG
  • 141020Z 34005KT 280V050 9999 SCT024 17/11 Q1016 NOSIG
  • 140950Z 33007KT 290V030 9999 SCT024 17/10 Q1016 NOSIG
  • 140920Z 34006KT 270V040 9999 SCT024 18/11 Q1016
  • 140850Z 34008KT 300V030 9999 SCT016 17/11 Q1016 NOSIG

TAF TAF EGSH
Valide du 14 à 09h jusqu'au 14 à 18h UTC


140753Z 1409/1418 34007KT 9999 FEW012 SCT030
ATIS : +44 1603 420 640



MET'MAP, la Météo Aéronautique d'un coup d'oeil ! - Copyright ORBIFLY Décembre 2007 - Disclaimer

ORBIFLY MET'MAP TEAM :

Programmation & Développement : Alexandra Zaïnal
Sur une idée originale de : Baudouin d'Aumeries
Assistance à la programmation : Marc-Olivier Méhu
Soutien technique & logistique : Manuel Goepfert

Contact : metmap@orbifly.com




SOURCES & CREDITS :

   NOAA